Time;durP1;ratioP1;P1;durP2;ratioP2;P2;SDS_P1;SDS_P2;PMS_P1;PMS_P2;Temp;Humidity;BMP_temperature;BMP_pressure;BME280_temperature;BME280_humidity;BME280_pressure;Samples;Min_cycle;Max_cycle;Signal;HPM_P1;HPM_P2
2021/07/23 00:01:54;;;;;;;10.60;9.10;;;;;;;;;;5035973;28;20453;-75
2021/07/23 00:04:22;;;;;;;14.70;9.57;;;;;;;;;;5049954;28;21018;-74
2021/07/23 00:06:49;;;;;;;12.40;10.70;;;;;;;;;;5034202;28;20478;-75
2021/07/23 00:09:16;;;;;;;11.17;9.60;;;;;;;;;;5040841;28;20521;-75
2021/07/23 00:11:44;;;;;;;11.80;9.00;;;;;;;;;;5046598;28;20538;-74
2021/07/23 00:14:11;;;;;;;12.73;9.70;;;;;;;;;;5034066;28;20534;-74
2021/07/23 00:16:38;;;;;;;10.17;8.37;;;;;;;;;;5030654;28;20447;-74
2021/07/23 00:19:05;;;;;;;11.60;8.67;;;;;;;;;;5041424;28;20462;-73
2021/07/23 00:21:34;;;;;;;11.10;9.10;;;;;;;;;;5040730;28;20443;-74
2021/07/23 00:24:01;;;;;;;10.93;9.70;;;;;;;;;;5036465;28;20477;-74
2021/07/23 00:26:28;;;;;;;10.27;9.17;;;;;;;;;;5045492;28;20500;-74
2021/07/23 00:28:55;;;;;;;9.87;8.60;;;;;;;;;;5050069;28;20597;-74
2021/07/23 00:31:22;;;;;;;11.33;9.93;;;;;;;;;;5047757;28;20448;-74
2021/07/23 00:33:50;;;;;;;10.80;9.53;;;;;;;;;;5050313;28;20461;-75
2021/07/23 00:36:17;;;;;;;12.00;9.70;;;;;;;;;;5033160;28;20535;-74
2021/07/23 00:38:46;;;;;;;10.40;8.40;;;;;;;;;;5047347;28;20453;-74
2021/07/23 00:41:13;;;;;;;12.97;9.13;;;;;;;;;;5045510;28;20875;-74
2021/07/23 00:43:40;;;;;;;10.10;9.07;;;;;;;;;;5042555;28;20526;-73
2021/07/23 00:46:07;;;;;;;9.80;8.80;;;;;;;;;;5049575;28;20450;-74
2021/07/23 00:48:35;;;;;;;12.97;9.40;;;;;;;;;;5049547;28;20564;-74
2021/07/23 00:51:02;;;;;;;13.97;10.07;;;;;;;;;;5046745;28;20465;-73
2021/07/23 00:53:29;;;;;;;13.80;9.60;;;;;;;;;;5045764;28;20451;-74
2021/07/23 00:55:59;;;;;;;13.27;8.80;;;;;;;;;;5046984;28;20450;-75
2021/07/23 00:58:27;;;;;;;9.90;8.90;;;;;;;;;;5029678;28;20443;-75
2021/07/23 01:00:55;;;;;;;12.17;9.70;;;;;;;;;;5031252;28;20439;-74
2021/07/23 01:03:23;;;;;;;12.93;9.57;;;;;;;;;;5041495;28;20474;-74
2021/07/23 01:05:52;;;;;;;9.97;7.73;;;;;;;;;;5049395;28;20445;-74
2021/07/23 01:08:20;;;;;;;10.67;8.77;;;;;;;;;;5036208;28;20515;-74
2021/07/23 01:10:47;;;;;;;10.70;8.30;;;;;;;;;;5031253;28;20454;-74
2021/07/23 01:13:16;;;;;;;12.87;9.10;;;;;;;;;;5034573;28;20443;-74
2021/07/23 01:15:43;;;;;;;11.10;8.90;;;;;;;;;;5033426;28;20443;-74
2021/07/23 01:18:11;;;;;;;11.13;9.47;;;;;;;;;;5033201;28;20828;-74
2021/07/23 01:20:39;;;;;;;11.07;8.67;;;;;;;;;;5035714;28;20868;-75
2021/07/23 01:23:08;;;;;;;10.40;8.83;;;;;;;;;;5052785;28;20438;-73
2021/07/23 01:25:36;;;;;;;12.20;9.13;;;;;;;;;;5037754;28;20948;-74
2021/07/23 01:28:04;;;;;;;10.80;8.40;;;;;;;;;;5033175;28;20481;-73
2021/07/23 01:30:31;;;;;;;11.87;9.83;;;;;;;;;;5033375;28;20560;-73
2021/07/23 01:32:58;;;;;;;11.60;8.27;;;;;;;;;;5047292;28;20454;-73
2021/07/23 01:35:25;;;;;;;11.70;9.27;;;;;;;;;;5041811;28;20964;-73
2021/07/23 01:37:54;;;;;;;11.93;9.00;;;;;;;;;;5033441;28;20843;-73
2021/07/23 01:40:21;;;;;;;12.70;9.23;;;;;;;;;;5032652;28;20478;-73
2021/07/23 01:42:50;;;;;;;11.70;8.77;;;;;;;;;;5033174;28;20803;-73
2021/07/23 01:45:17;;;;;;;10.63;8.60;;;;;;;;;;5032623;28;20446;-73
2021/07/23 01:47:44;;;;;;;14.53;9.00;;;;;;;;;;5032792;28;20498;-73
2021/07/23 01:50:12;;;;;;;9.33;8.23;;;;;;;;;;5039729;28;20522;-73
2021/07/23 01:52:39;;;;;;;14.73;9.93;;;;;;;;;;5048548;28;20885;-73
2021/07/23 01:55:07;;;;;;;10.53;9.43;;;;;;;;;;5052466;28;20460;-72
2021/07/23 01:57:34;;;;;;;12.03;8.83;;;;;;;;;;5051210;28;20454;-73
2021/07/23 02:00:04;;;;;;;11.97;9.60;;;;;;;;;;5032609;28;20535;-72
2021/07/23 02:02:31;;;;;;;10.83;9.03;;;;;;;;;;5032352;28;20573;-73
2021/07/23 02:04:59;;;;;;;11.83;9.03;;;;;;;;;;5037536;28;20451;-73
2021/07/23 02:07:26;;;;;;;11.50;8.70;;;;;;;;;;5033499;28;20566;-73
2021/07/23 02:09:54;;;;;;;12.47;9.03;;;;;;;;;;5045888;28;20456;-73
2021/07/23 02:12:21;;;;;;;11.90;9.60;;;;;;;;;;5040854;28;20978;-74
2021/07/23 02:14:48;;;;;;;11.43;9.43;;;;;;;;;;5032602;28;20461;-73
2021/07/23 02:17:16;;;;;;;11.50;9.03;;;;;;;;;;5037126;28;20820;-73
2021/07/23 02:19:43;;;;;;;13.00;9.70;;;;;;;;;;5034540;28;20443;-73
2021/07/23 02:22:11;;;;;;;12.27;9.27;;;;;;;;;;5034677;28;20444;-73
2021/07/23 02:24:38;;;;;;;13.60;10.07;;;;;;;;;;5032511;28;20842;-73
2021/07/23 02:27:05;;;;;;;12.47;8.97;;;;;;;;;;5032170;28;20487;-73
2021/07/23 02:29:32;;;;;;;9.23;8.33;;;;;;;;;;5032204;28;20931;-73
2021/07/23 02:31:59;;;;;;;9.83;7.97;;;;;;;;;;5042144;28;20447;-73
2021/07/23 02:34:29;;;;;;;12.30;8.67;;;;;;;;;;5031471;28;20450;-73
2021/07/23 02:36:57;;;;;;;12.13;8.87;;;;;;;;;;5032268;28;20435;-73
2021/07/23 02:39:24;;;;;;;10.70;8.90;;;;;;;;;;5031388;28;20455;-72
2021/07/23 02:41:52;;;;;;;12.47;9.47;;;;;;;;;;5031991;28;20451;-73
2021/07/23 02:44:19;;;;;;;11.37;9.80;;;;;;;;;;5039374;28;20973;-73
2021/07/23 02:46:46;;;;;;;11.27;8.67;;;;;;;;;;5031818;28;20449;-73
2021/07/23 02:49:13;;;;;;;11.80;9.40;;;;;;;;;;5031640;28;20452;-73
2021/07/23 02:51:41;;;;;;;11.50;8.97;;;;;;;;;;5031713;28;20566;-72
2021/07/23 02:54:09;;;;;;;9.83;8.00;;;;;;;;;;5031431;28;20453;-73
2021/07/23 02:56:36;;;;;;;9.87;8.27;;;;;;;;;;5032872;28;20447;-73
2021/07/23 02:59:03;;;;;;;9.67;8.30;;;;;;;;;;5036910;28;20454;-73
2021/07/23 03:01:30;;;;;;;9.80;8.13;;;;;;;;;;5031359;28;20451;-73
2021/07/23 03:03:57;;;;;;;9.00;7.60;;;;;;;;;;5032558;28;20513;-73
2021/07/23 03:06:24;;;;;;;13.03;8.70;;;;;;;;;;5036936;28;20443;-73
2021/07/23 03:08:53;;;;;;;12.53;9.90;;;;;;;;;;5049609;28;20482;-73
2021/07/23 03:11:20;;;;;;;10.47;9.13;;;;;;;;;;5045865;28;20454;-73
2021/07/23 03:13:47;;;;;;;11.40;8.67;;;;;;;;;;5047898;28;20447;-73
2021/07/23 03:16:15;;;;;;;12.40;9.33;;;;;;;;;;5031158;28;20546;-73
2021/07/23 03:18:42;;;;;;;11.70;8.53;;;;;;;;;;5031317;28;20451;-73
2021/07/23 03:21:09;;;;;;;13.20;8.13;;;;;;;;;;5030820;28;20466;-72
2021/07/23 03:23:36;;;;;;;11.10;8.00;;;;;;;;;;5031166;28;20450;-72
2021/07/23 03:26:07;;;;;;;11.33;8.97;;;;;;;;;;5039516;28;20443;-72
2021/07/23 03:28:35;;;;;;;10.10;8.70;;;;;;;;;;5050900;28;20492;-73
2021/07/23 03:31:02;;;;;;;14.73;9.73;;;;;;;;;;5049040;28;20446;-72
2021/07/23 03:33:29;;;;;;;13.10;9.60;;;;;;;;;;5030713;28;20462;-72
2021/07/23 03:35:56;;;;;;;12.40;8.87;;;;;;;;;;5050757;28;20541;-72
2021/07/23 03:38:23;;;;;;;15.93;10.60;;;;;;;;;;5046306;28;20473;-72
2021/07/23 03:40:50;;;;;;;11.70;9.30;;;;;;;;;;5048541;28;20445;-72
2021/07/23 03:43:19;;;;;;;14.20;8.90;;;;;;;;;;5050148;28;20453;-72
2021/07/23 03:45:46;;;;;;;12.03;8.23;;;;;;;;;;5050479;28;20449;-72
2021/07/23 03:48:13;;;;;;;13.00;9.20;;;;;;;;;;5049962;28;20482;-72
2021/07/23 03:50:40;;;;;;;12.63;8.70;;;;;;;;;;5050283;28;20980;-71
2021/07/23 03:53:07;;;;;;;9.13;8.13;;;;;;;;;;5044470;28;20451;-72
2021/07/23 03:55:34;;;;;;;11.20;8.57;;;;;;;;;;5050424;28;20453;-72
2021/07/23 03:58:01;;;;;;;11.90;9.37;;;;;;;;;;5049907;28;20947;-72
2021/07/23 04:00:30;;;;;;;12.63;9.50;;;;;;;;;;5031617;28;20458;-73
2021/07/23 04:02:58;;;;;;;11.47;8.83;;;;;;;;;;5030532;28;20968;-73
2021/07/23 04:05:25;;;;;;;11.97;8.60;;;;;;;;;;5031219;28;20455;-73
2021/07/23 04:07:52;;;;;;;12.07;9.60;;;;;;;;;;5044151;28;20981;-72
2021/07/23 04:10:19;;;;;;;11.47;10.30;;;;;;;;;;5050242;28;20458;-73
2021/07/23 04:12:46;;;;;;;10.90;8.37;;;;;;;;;;5050297;28;20450;-73
2021/07/23 04:15:13;;;;;;;12.00;8.70;;;;;;;;;;5034853;28;20478;-72
2021/07/23 04:17:42;;;;;;;11.13;9.33;;;;;;;;;;5041939;28;20537;-72
2021/07/23 04:20:10;;;;;;;11.57;8.70;;;;;;;;;;5046436;28;20454;-73
2021/07/23 04:22:37;;;;;;;10.43;9.00;;;;;;;;;;5042108;28;20442;-73
2021/07/23 04:25:04;;;;;;;11.50;9.87;;;;;;;;;;5047343;28;20460;-73
2021/07/23 04:27:31;;;;;;;11.70;8.53;;;;;;;;;;5036981;28;20448;-72
2021/07/23 04:29:58;;;;;;;10.90;9.13;;;;;;;;;;5052428;28;20461;-72
2021/07/23 04:32:25;;;;;;;9.80;8.80;;;;;;;;;;5063586;28;20452;-72
2021/07/23 04:34:54;;;;;;;12.00;8.90;;;;;;;;;;5043825;28;20852;-72
2021/07/23 04:37:21;;;;;;;10.97;8.97;;;;;;;;;;5054490;28;20472;-72
2021/07/23 04:39:48;;;;;;;13.80;9.60;;;;;;;;;;5061837;28;20438;-74
2021/07/23 04:42:15;;;;;;;12.50;9.67;;;;;;;;;;5062045;28;20460;-72
2021/07/23 04:44:42;;;;;;;11.63;8.87;;;;;;;;;;5054059;28;20510;-72
2021/07/23 04:47:10;;;;;;;11.40;9.00;;;;;;;;;;5061956;28;20455;-77
2021/07/23 04:49:37;;;;;;;11.80;8.03;;;;;;;;;;5052357;28;20485;-78
2021/07/23 04:52:06;;;;;;;10.77;8.20;;;;;;;;;;5043664;28;20455;-78
2021/07/23 04:54:33;;;;;;;12.83;9.03;;;;;;;;;;5047865;28;20604;-78
2021/07/23 04:57:00;;;;;;;10.20;9.10;;;;;;;;;;5069121;28;20488;-74
2021/07/23 04:59:27;;;;;;;18.03;9.00;;;;;;;;;;5041654;28;20857;-76
2021/07/23 05:01:55;;;;;;;9.93;8.87;;;;;;;;;;5049020;28;20526;-76
2021/07/23 05:04:22;;;;;;;11.80;8.60;;;;;;;;;;5055941;28;20561;-75
2021/07/23 05:06:49;;;;;;;12.17;9.17;;;;;;;;;;5053501;28;20938;-76
2021/07/23 05:09:17;;;;;;;10.57;8.50;;;;;;;;;;5057593;28;20463;-75
2021/07/23 05:11:45;;;;;;;11.80;7.53;;;;;;;;;;5073876;28;20512;-73
2021/07/23 05:14:12;;;;;;;9.60;8.27;;;;;;;;;;5049335;28;20479;-75
2021/07/23 05:16:41;;;;;;;10.93;8.80;;;;;;;;;;5033934;28;20443;-75
2021/07/23 05:19:08;;;;;;;12.20;9.67;;;;;;;;;;5033451;28;20890;-75
2021/07/23 05:21:36;;;;;;;10.70;9.37;;;;;;;;;;5033836;28;20439;-75
2021/07/23 05:24:05;;;;;;;13.53;9.07;;;;;;;;;;5033611;28;20450;-76
2021/07/23 05:26:35;;;;;;;10.87;8.83;;;;;;;;;;5033447;28;20445;-76
2021/07/23 05:29:02;;;;;;;13.27;8.80;;;;;;;;;;5033600;28;20479;-74
2021/07/23 05:31:29;;;;;;;9.70;8.57;;;;;;;;;;5033420;28;20438;-77
2021/07/23 05:33:57;;;;;;;11.10;8.77;;;;;;;;;;5033581;28;20454;-76
2021/07/23 05:36:25;;;;;;;9.50;7.90;;;;;;;;;;5033059;28;20439;-74
2021/07/23 05:38:52;;;;;;;10.10;8.90;;;;;;;;;;5033528;28;20454;-76
2021/07/23 05:41:19;;;;;;;10.40;8.70;;;;;;;;;;5033441;28;20808;-75
2021/07/23 05:43:47;;;;;;;11.80;8.73;;;;;;;;;;5033496;28;20861;-75
2021/07/23 05:46:15;;;;;;;10.80;8.70;;;;;;;;;;5033104;28;20792;-75
2021/07/23 05:48:42;;;;;;;12.13;8.23;;;;;;;;;;5032972;28;20817;-75
2021/07/23 05:51:10;;;;;;;13.00;8.30;;;;;;;;;;5032847;28;20467;-76
2021/07/23 05:53:37;;;;;;;10.17;8.43;;;;;;;;;;5033236;28;20439;-76
2021/07/23 05:56:05;;;;;;;12.70;9.33;;;;;;;;;;5032854;28;20527;-75
2021/07/23 05:58:32;;;;;;;11.13;8.80;;;;;;;;;;5032720;28;20443;-76
2021/07/23 06:01:05;;;;;;;15.37;8.93;;;;;;;;;;5033240;28;20455;-76
2021/07/23 06:03:31;;;;;;;10.77;8.10;;;30.30;1.00;;;;;;5032364;28;20467;-76
2021/07/23 06:05:58;;;;;;;11.17;9.00;;;19.10;1.00;;;;;;5032929;28;20482;-76
2021/07/23 06:08:25;;;;;;;12.20;8.97;;;19.10;1.00;;;;;;5032693;28;20475;-76
2021/07/23 06:10:52;;;;;;;12.17;9.37;;;19.20;99.90;;;;;;5032960;28;20438;-76
2021/07/23 06:13:19;;;;;;;10.50;8.87;;;19.20;1.00;;;;;;5032560;28;20539;-76
2021/07/23 06:15:45;;;;;;;10.87;9.77;;;19.30;99.90;;;;;;5032890;28;20442;-75
2021/07/23 06:18:14;;;;;;;11.53;8.80;;;19.50;1.00;;;;;;5032262;28;20439;-76
2021/07/23 06:20:41;;;;;;;10.97;9.63;;;19.40;99.90;;;;;;5032646;28;20539;-75
2021/07/23 06:23:08;;;;;;;11.20;9.33;;;19.50;99.90;;;;;;5032346;28;20434;-74
2021/07/23 06:25:35;;;;;;;11.23;9.40;;;;;;;;;;5032828;28;20471;-75
2021/07/23 06:28:04;;;;;;;12.80;9.60;;;;;;;;;;5032486;28;20780;-76
2021/07/23 06:30:31;;;;;;;12.13;9.83;;;;;;;;;;5032010;28;20453;-76
2021/07/23 06:32:58;;;;;;;15.53;9.90;;;;;;;;;;5032460;28;20443;-76
2021/07/23 06:35:29;;;;;;;12.67;9.87;;;;;;;;;;5032267;28;20537;-75
2021/07/23 06:37:57;;;;;;;12.77;8.77;;;;;;;;;;5032478;28;20935;-75
2021/07/23 06:40:24;;;;;;;12.00;9.90;;;;;;;;;;5031989;28;20435;-76
2021/07/23 06:42:52;;;;;;;10.63;9.53;;;;;;;;;;5032387;28;20470;-76
2021/07/23 06:45:19;;;;;;;15.43;11.10;;;;;;;;;;5031979;28;20443;-76
2021/07/23 06:47:46;;;;;;;13.80;10.80;;;;;;;;;;5032480;28;20431;-75
2021/07/23 06:50:14;;;;;;;13.00;10.77;;;;;;;;;;5031771;28;20876;-76
2021/07/23 06:52:42;;;;;;;14.93;10.53;;;;;;;;;;5031795;28;20924;-76
2021/07/23 06:55:12;;;;;;;13.57;10.50;;;;;;;;;;5031584;28;20534;-75
2021/07/23 06:57:39;;;;;;;16.33;11.20;;;;;;;;;;5031878;28;20959;-76
2021/07/23 07:00:07;;;;;;;13.33;10.47;;;;;;;;;;5032133;28;20853;-75
2021/07/23 07:02:34;;;;;;;12.87;9.37;;;;;;;;;;5031786;28;20562;-75
2021/07/23 07:05:02;;;;;;;14.33;10.60;;;;;;;;;;5031883;28;20944;-75
2021/07/23 07:07:29;;;;;;;12.90;10.20;;;;;;;;;;5031476;28;20480;-75
2021/07/23 07:09:57;;;;;;;16.00;10.00;;;;;;;;;;5031178;28;20927;-75
2021/07/23 07:12:25;;;;;;;15.17;9.83;;;;;;;;;;5031124;28;20982;-76
2021/07/23 07:14:52;;;;;;;15.00;9.70;;;;;;;;;;5031665;28;20526;-76
2021/07/23 07:17:20;;;;;;;16.33;11.20;;;;;;;;;;5031310;28;20479;-76
2021/07/23 07:19:47;;;;;;;14.53;11.40;;;;;;;;;;5031759;28;20474;-77
2021/07/23 07:22:16;;;;;;;11.90;9.90;;;;;;;;;;5031411;28;20471;-76
2021/07/23 07:24:43;;;;;;;12.67;10.87;;;;;;;;;;5031569;28;20466;-76
2021/07/23 07:27:13;;;;;;;13.60;10.13;;;;;;;;;;5031105;28;20439;-75
2021/07/23 07:29:40;;;;;;;14.97;11.57;;;;;;;;;;5031695;28;20800;-76
2021/07/23 07:32:08;;;;;;;15.00;10.50;;;;;;;;;;5031444;28;20439;-76
2021/07/23 07:34:35;;;;;;;11.00;9.80;;;;;;;;;;5031687;28;20851;-76
2021/07/23 07:37:02;;;;;;;13.43;10.43;;;;;;;;;;5031687;28;20845;-75
2021/07/23 07:39:30;;;;;;;14.20;10.50;;;;;;;;;;5030914;28;20521;-76
2021/07/23 07:41:57;;;;;;;14.50;11.30;;;;;;;;;;5031369;28;20435;-76
2021/07/23 07:44:25;;;;;;;13.03;10.20;;;;;;;;;;5030961;28;20435;-76
2021/07/23 07:46:53;;;;;;;11.33;10.13;;;;;;;;;;5031404;28;20437;-76
2021/07/23 07:49:20;;;;;;;13.20;10.80;;;;;;;;;;5030886;28;20497;-76
2021/07/23 07:51:47;;;;;;;11.50;10.30;;;;;;;;;;5031511;28;20439;-76
2021/07/23 07:54:14;;;;;;;13.90;11.10;;;;;;;;;;5030415;28;20449;-76
2021/07/23 07:56:42;;;;;;;15.53;11.03;;;;;;;;;;5030953;28;20482;-76
2021/07/23 07:59:09;;;;;;;14.63;11.97;;;;;;;;;;5031045;28;20945;-75
2021/07/23 08:01:37;;;;;;;13.00;10.73;;;;;;;;;;5031180;28;20807;-76
2021/07/23 08:04:05;;;;;;;13.97;10.37;;;;;;;;;;5030656;28;20806;-76
2021/07/23 08:06:35;;;;;;;18.80;11.30;;;;;;;;;;5030833;28;20478;-76
2021/07/23 08:09:05;;;;;;;16.03;11.80;;;;;;;;;;5030767;28;21135;-75
2021/07/23 08:11:33;;;;;;;15.27;11.97;;;;;;;;;;5030522;28;20443;-76
2021/07/23 08:14:00;;;;;;;12.43;11.13;;;;;;;;;;5030779;28;21018;-75
2021/07/23 08:16:27;;;;;;;11.17;9.97;;;;;;;;;;5030763;28;20522;-76
2021/07/23 08:18:56;;;;;;;15.43;11.80;;;;;;;;;;5030884;28;20453;-76
2021/07/23 08:21:23;;;;;;;15.13;12.50;;;;;;;;;;5034357;28;20475;-76
2021/07/23 08:23:50;;;;;;;14.57;11.53;;;;;;;;;;5035203;28;20439;-76
2021/07/23 08:26:17;;;;;;;15.73;11.80;;;;;;;;;;5034601;28;20439;-76
2021/07/23 08:28:45;;;;;;;14.07;11.60;;;;;;;;;;5034728;28;20838;-76
2021/07/23 08:31:12;;;;;;;15.57;11.40;;;;;;;;;;5034564;28;20474;-77
2021/07/23 08:33:42;;;;;;;15.47;12.57;;;;;;;;;;5035084;28;20449;-76
2021/07/23 08:36:11;;;;;;;16.10;11.30;;;;;;;;;;5034940;28;20828;-76
2021/07/23 08:38:38;;;;;;;15.87;12.13;;;;;;;;;;5034524;28;20462;-77
2021/07/23 08:41:05;;;;;;;14.20;12.00;;;;;;;;;;5034557;28;20443;-77
2021/07/23 08:43:32;;;;;;;19.37;11.77;;;;;;;;;;5034428;28;20453;-77
2021/07/23 08:45:59;;;;;;;18.77;12.87;;;;;;;;;;5034549;28;20877;-77
2021/07/23 08:48:26;;;;;;;18.53;11.60;;;;;;;;;;5034077;28;20450;-76
2021/07/23 08:50:54;;;;;;;14.23;11.10;;;;;;;;;;5034104;28;20481;-76
2021/07/23 08:53:22;;;;;;;14.57;11.50;;;;;;;;;;5033957;28;21029;-76
2021/07/23 08:55:49;;;;;;;13.33;11.17;;;;;;;;;;5034478;28;20445;-77
2021/07/23 08:58:18;;;;;;;11.97;10.70;;;;;;;;;;5033887;28;20445;-77
2021/07/23 09:00:45;;;;;;;14.40;11.23;;;;;;;;;;5035793;28;20450;-76
2021/07/23 09:03:12;;;;;;;13.67;11.53;;;;;;;;;;5033669;28;21018;-76
2021/07/23 09:05:41;;;;;;;12.40;10.33;;;;;;;;;;5034017;28;20443;-76
2021/07/23 09:08:17;;;;;;;14.67;12.27;;;;;;;;;;5033999;28;20435;-76
2021/07/23 09:10:46;;;;;;;15.70;11.50;;;;;;;;;;5034185;28;20914;-77
2021/07/23 09:13:21;;;;;;;12.50;11.30;;;;;;;;;;5033895;28;20538;-76
2021/07/23 09:15:48;;;;;;;11.60;10.40;;;;;;;;;;5034483;28;20430;-77
2021/07/23 09:18:21;;;;;;;13.43;10.70;;;;;;;;;;5034232;28;20449;-77
2021/07/23 09:20:54;;;;;;;12.87;10.77;;;;;;;;;;5034105;28;20448;-74
2021/07/23 09:23:27;;;;;;;11.17;10.07;;;;;;;;;;5033481;28;20439;-74
2021/07/23 09:25:55;;;;;;;11.20;10.10;;;;;;;;;;5034094;28;20427;-75
2021/07/23 09:28:24;;;;;;;16.17;10.03;;;;;;;;;;5033789;28;20435;-77
2021/07/23 09:30:51;;;;;;;11.63;9.70;;;;;;;;;;5033318;28;20475;-77
2021/07/23 09:33:24;;;;;;;13.80;10.77;;;;;;;;;;5032994;28;20554;-77
2021/07/23 09:35:52;;;;;;;12.40;10.00;;;;;;;;;;5033842;28;20449;-74
2021/07/23 09:38:20;;;;;;;12.03;10.87;;;;;;;;;;5033007;28;20439;-75
2021/07/23 09:40:48;;;;;;;11.30;9.73;;;;;;;;;;5032925;28;20459;-77
2021/07/23 09:43:30;;;;;;;15.57;11.00;;;;;;;;;;5032699;28;20443;-77
2021/07/23 09:46:17;;;;;;;10.77;9.43;;;;;;;;;;5033361;28;20939;-75
2021/07/23 09:48:44;;;;;;;10.90;9.80;;;;;;;;;;5033095;28;20483;-75
2021/07/23 09:51:12;;;;;;;12.20;10.90;;;;;;;;;;5032920;28;20485;-74
2021/07/23 09:53:39;;;;;;;11.93;10.50;;;;;;;;;;5033206;28;20530;-75
2021/07/23 09:56:07;;;;;;;12.53;9.43;;;;;;;;;;5033089;28;20443;-75
2021/07/23 09:58:38;;;;;;;14.87;10.33;;;;;;;;;;5032765;28;20510;-75
2021/07/23 10:01:08;;;;;;;13.97;10.43;;;;;;;;;;5032729;28;20449;-75
2021/07/23 10:03:36;;;;;;;12.43;10.73;;;;;;;;;;5032549;28;20515;-75
2021/07/23 10:06:04;;;;;;;12.00;10.70;;;;;;;;;;5033111;28;20486;-75
2021/07/23 10:08:33;;;;;;;11.67;9.87;;;;;;;;;;5032912;28;20530;-75
2021/07/23 10:11:02;;;;;;;12.23;10.53;;;;;;;;;;5032976;28;20502;-75
2021/07/23 10:13:30;;;;;;;11.40;10.07;;;;;;;;;;5032455;28;20530;-75
2021/07/23 10:15:59;;;;;;;11.07;9.83;;;;;;;;;;5032866;28;20455;-75
2021/07/23 10:18:26;;;;;;;12.00;9.80;;;;;;;;;;5032405;28;20538;-75
2021/07/23 10:20:55;;;;;;;13.40;10.50;;;;;;;;;;5033038;28;20451;-75
2021/07/23 10:23:23;;;;;;;10.70;9.70;;;;;;;;;;5031961;28;20470;-74
2021/07/23 10:25:51;;;;;;;11.10;10.00;;;;;;;;;;5032499;28;20524;-75
2021/07/23 10:28:33;;;;;;;10.00;9.00;;;;;;;;;;5031943;28;20546;-75
2021/07/23 10:31:01;;;;;;;10.03;9.13;;;;;;;;;;5015989;28;20489;-76
2021/07/23 10:33:51;;;;;;;15.43;9.60;;;;;;;;;;5031995;28;20463;-75
2021/07/23 10:36:37;;;;;;;12.27;9.83;;;;;;;;;;5032114;28;20501;-76
2021/07/23 10:39:08;;;;;;;12.50;9.50;;;;;;;;;;5032567;28;20497;-76
2021/07/23 10:41:35;;;;;;;10.77;9.67;;;;;;;;;;5032384;28;20461;-76
2021/07/23 10:44:02;;;;;;;9.57;8.50;;;;;;;;;;5035380;28;20439;-77
2021/07/23 10:46:44;;;;;;;10.13;9.13;;;;;;;;;;5032080;28;21014;-78
2021/07/23 10:49:34;;;;;;;10.87;9.80;;;;;;;;;;5031074;28;20971;-75
2021/07/23 10:52:02;;;;;;;14.03;10.33;;;;;;;;;;5031792;28;20503;-74
2021/07/23 10:54:30;;;;;;;10.47;9.47;;;;;;;;;;5031667;28;20508;-76
2021/07/23 10:57:12;;;;;;;11.03;10.00;;;;;;;;;;5031931;28;20445;-75
2021/07/23 10:59:51;;;;;;;12.60;9.90;;;;;;;;;;5029338;28;20482;-76
2021/07/23 11:02:37;;;;;;;11.67;10.30;;;;;;;;;;5031429;28;20545;-75
2021/07/23 11:05:07;;;;;;;10.93;9.90;;;19.90;99.90;;;;;;5031807;28;20542;-74
2021/07/23 11:07:34;;;;;;;12.13;10.93;;;26.30;99.90;;;;;;5031306;28;20454;-75
2021/07/23 11:10:03;;;;;;;13.20;9.50;;;26.40;99.90;;;;;;5031801;28;20574;-74
2021/07/23 11:12:31;;;;;;;11.10;10.10;;;26.20;99.90;;;;;;5031468;28;20447;-78
2021/07/23 11:14:59;;;;;;;10.80;9.70;;;26.10;99.90;;;;;;5031390;28;21022;-77
2021/07/23 11:17:28;;;;;;;11.60;10.50;;;26.50;99.90;;;;;;5030821;28;20538;-75
2021/07/23 11:19:58;;;;;;;13.90;9.23;;;26.70;99.90;;;;;;5031326;28;20453;-75
2021/07/23 11:22:28;;;;;;;15.63;10.93;;;27.30;99.90;;;;;;5031093;28;20850;-74
2021/07/23 11:24:55;;;;;;;10.47;9.37;;;27.40;99.90;;;;;;5031350;28;20943;-77
2021/07/23 11:27:27;;;;;;;11.77;10.63;;;27.40;99.90;;;;;;5031084;28;20510;-76
2021/07/23 11:29:54;;;;;;;11.73;9.53;;;27.80;99.90;;;;;;5031455;28;20509;-76
2021/07/23 11:32:22;;;;;;;11.70;9.87;;;27.80;99.90;;;;;;5030941;28;20497;-75
2021/07/23 11:35:02;;;;;;;11.63;10.43;;;27.90;99.90;;;;;;5031299;28;20445;-76
2021/07/23 11:37:30;;;;;;;10.40;9.40;;;28.00;99.90;;;;;;5031360;28;20854;-76
2021/07/23 11:39:58;;;;;;;10.93;9.93;;;27.60;99.90;;;;;;5031377;28;20449;-76
2021/07/23 11:42:28;;;;;;;10.63;9.53;;;27.20;99.90;;;;;;5030944;28;20469;-75
2021/07/23 11:44:57;;;;;;;11.00;9.90;;;27.20;99.90;;;;;;5031303;28;20415;-76
2021/07/23 11:47:32;;;;;;;10.07;9.17;;;27.40;99.90;;;;;;5030803;28;20541;-76
2021/07/23 11:50:01;;;;;;;12.30;11.00;;;27.50;99.90;;;;;;5031174;28;20480;-76
2021/07/23 11:52:29;;;;;;;11.87;9.17;;;27.70;99.90;;;;;;5030621;28;21010;-75
2021/07/23 11:55:00;;;;;;;10.80;9.70;;;27.90;99.90;;;;;;5030744;28;20431;-75
2021/07/23 11:57:29;;;;;;;9.87;8.93;;;28.00;99.90;;;;;;5030694;28;20435;-75
2021/07/23 11:59:56;;;;;;;9.97;8.80;;;28.10;99.90;;;;;;5030927;28;20449;-76
2021/07/23 12:02:26;;;;;;;9.73;8.83;;;28.10;99.90;;;;;;5030210;28;20450;-75
2021/07/23 12:05:19;;;;;;;13.03;9.60;;;28.10;99.90;;;;;;5031017;28;20496;-75
2021/07/23 12:07:59;;;;;;;9.27;8.47;;;28.20;99.90;;;;;;5011427;28;20446;-76
2021/07/23 12:10:27;;;;;;;10.10;9.03;;;28.40;99.90;;;;;;5030436;28;20874;-76
2021/07/23 12:12:55;;;;;;;9.83;8.93;;;28.60;99.90;;;;;;5030973;28;20773;-76
2021/07/23 12:15:22;;;;;;;10.63;9.63;;;28.90;97.10;;;;;;5030374;28;20927;-76
2021/07/23 12:17:50;;;;;;;10.03;9.10;;;29.10;94.90;;;;;;5030724;28;20958;-76
2021/07/23 12:20:18;;;;;;;9.53;8.70;;;29.20;90.90;;;;;;5030420;28;20449;-76
2021/07/23 12:23:04;;;;;;;10.20;9.30;;;29.40;83.60;;;;;;5030487;28;20435;-75
2021/07/23 12:25:38;;;;;;;11.40;9.00;;;29.40;92.60;;;;;;5029443;28;20453;-76
2021/07/23 12:28:07;;;;;;;10.50;9.40;;;29.30;72.40;;;;;;5030838;28;20435;-75
2021/07/23 12:30:35;;;;;;;10.53;9.57;;;29.20;76.80;;;;;;5030287;28;20998;-75
2021/07/23 12:33:13;;;;;;;10.33;9.07;;;29.00;72.70;;;;;;5030412;28;20455;-75
2021/07/23 12:35:40;;;;;;;9.40;8.23;;;28.70;67.00;;;;;;5030586;28;20438;-76
2021/07/23 12:38:09;;;;;;;10.47;9.30;;;28.70;66.70;;;;;;5030983;28;20453;-75
2021/07/23 12:40:54;;;;;;;12.67;9.97;;;28.60;62.00;;;;;;5030707;28;20435;-76
2021/07/23 12:43:22;;;;;;;9.93;9.03;;;28.70;57.20;;;;;;5029048;28;20446;-74
2021/07/23 12:45:50;;;;;;;9.73;8.77;;;28.70;52.70;;;;;;5030532;28;20435;-75
2021/07/23 12:48:18;;;;;;;11.33;9.47;;;29.00;52.90;;;;;;5030149;28;20426;-75
2021/07/23 12:50:47;;;;;;;11.83;9.50;;;29.00;48.80;;;;;;5030448;28;20463;-76
2021/07/23 12:53:26;;;;;;;10.70;9.60;;;29.10;46.30;;;;;;5030161;28;20441;-75
2021/07/23 12:55:57;;;;;;;10.70;8.97;;;29.20;45.30;;;;;;5030612;28;20439;-76
2021/07/23 12:58:40;;;;;;;9.37;8.37;;;29.30;42.30;;;;;;5030135;28;20449;-76
2021/07/23 13:01:07;;;;;;;10.40;9.40;;;29.40;39.50;;;;;;5030502;28;20517;-76
2021/07/23 13:03:34;;;;;;;9.53;8.63;;;29.20;39.70;;;;;;5029944;28;20232;-76
2021/07/23 13:06:01;;;;;;;9.60;8.70;;;29.20;39.80;;;;;;5030730;28;20456;-77
2021/07/23 13:08:30;;;;;;;9.80;8.90;;;29.20;36.80;;;;;;5033582;28;20513;-75
2021/07/23 13:10:57;;;;;;;9.03;8.23;;;29.50;32.60;;;;;;5034229;28;20223;-76
2021/07/23 13:13:24;;;;;;;9.63;8.73;;;29.60;29.50;;;;;;5033565;28;20625;-76
2021/07/23 13:15:51;;;;;;;9.43;8.50;;;29.80;27.10;;;;;;5033978;28;20438;-77
2021/07/23 13:18:18;;;;;;;11.37;8.90;;;29.60;27.30;;;;;;5033540;28;20854;-76
2021/07/23 13:20:45;;;;;;;9.70;8.90;;;29.60;27.30;;;;;;5034168;28;20271;-77
2021/07/23 13:23:11;;;;;;;10.60;8.83;;;30.10;22.40;;;;;;5049452;28;20187;-77
2021/07/23 13:25:41;;;;;;;9.47;8.57;;;29.70;20.70;;;;;;5053478;28;20195;-77
2021/07/23 13:28:07;;;;;;;11.70;8.60;;;29.40;22.50;;;;;;5054090;28;20233;-76
2021/07/23 13:30:34;;;;;;;10.90;9.23;;;29.30;20.60;;;;;;5053487;28;20221;-76
2021/07/23 13:33:02;;;;;;;9.00;8.17;;;29.50;21.70;;;;;;5053423;28;20537;-76
2021/07/23 13:35:29;;;;;;;9.93;8.93;;;29.70;20.10;;;;;;5053302;28;20199;-77
2021/07/23 13:37:58;;;;;;;9.57;8.60;;;30.10;19.30;;;;;;5053722;28;20287;-77
2021/07/23 13:40:28;;;;;;;10.27;9.13;;;30.10;18.60;;;;;;5053035;28;20195;-76
2021/07/23 13:42:57;;;;;;;9.40;8.50;;;30.40;15.50;;;;;;5053596;28;20282;-76
2021/07/23 13:45:24;;;;;;;9.20;8.10;;;30.20;10.60;;;;;;5053146;28;20598;-76
2021/07/23 13:47:51;;;;;;;9.00;8.03;;;30.00;13.20;;;;;;5053245;28;20643;-76
2021/07/23 13:50:18;;;;;;;10.30;8.80;;;30.00;11.40;;;;;;5052711;28;20560;-76
2021/07/23 13:52:45;;;;;;;8.67;7.90;;;30.30;10.00;;;;;;5053295;28;20195;-76
2021/07/23 13:55:12;;;;;;;9.90;8.90;;;30.50;8.20;;;;;;5053172;28;20282;-77
2021/07/23 13:57:39;;;;;;;10.47;9.47;;;30.70;7.50;;;;;;5053588;28;20202;-77
2021/07/23 14:00:09;;;;;;;8.60;7.90;;;30.60;5.20;;;;;;5053113;28;20210;-77
2021/07/23 14:02:38;;;;;;;9.17;8.27;;;30.90;3.90;;;;;;5052184;28;20219;-77
2021/07/23 14:05:05;;;;;;;9.17;8.23;;;;;;;;;;5052949;28;20624;-78
2021/07/23 14:07:32;;;;;;;9.80;8.90;;;;;;;;;;5052752;28;20217;-77